createdAt,value
2023-08-25T08:30:47.639Z,100.00
2023-08-25T08:33:18.489Z,100.00
2023-08-25T08:35:47.957Z,100.00
2023-08-25T08:38:16.844Z,100.00
2023-08-25T08:40:45.602Z,100.00
2023-08-25T08:43:20.337Z,100.00
2023-08-25T08:45:56.249Z,100.00
2023-08-25T08:48:27.591Z,100.00
2023-08-25T08:50:57.247Z,100.00
2023-08-25T08:53:26.277Z,100.00
2023-08-25T08:55:56.556Z,100.00
2023-08-25T08:58:24.998Z,100.00
2023-08-25T09:00:57.587Z,100.00
2023-08-25T09:03:32.509Z,100.00
2023-08-25T09:06:04.544Z,100.00
2023-08-25T09:08:34.308Z,100.00
2023-08-25T09:11:05.183Z,100.00
2023-08-25T09:13:36.535Z,100.00
2023-08-25T09:16:13.960Z,100.00
2023-08-25T09:18:42.894Z,100.00
2023-08-25T09:21:18.911Z,100.00
2023-08-25T09:23:57.296Z,100.00
2023-08-25T09:26:27.868Z,100.00
2023-08-25T09:28:57.114Z,100.00
2023-08-25T09:31:28.595Z,100.00
2023-08-25T09:34:02.341Z,100.00
2023-08-25T09:36:36.201Z,100.00
2023-08-25T09:39:08.082Z,100.00
2023-08-25T09:41:36.802Z,100.00
2023-08-25T09:44:05.469Z,100.00
2023-08-25T09:46:35.611Z,100.00
2023-08-25T09:49:05.469Z,100.00
2023-08-25T09:51:38.965Z,100.00
2023-08-25T09:54:10.742Z,100.00
2023-08-25T09:56:40.516Z,100.00
2023-08-25T09:59:10.602Z,100.00
2023-08-25T10:01:41.907Z,100.00
2023-08-25T10:04:12.339Z,100.00
2023-08-25T10:06:42.912Z,100.00
2023-08-25T10:09:11.560Z,100.00
2023-08-25T10:11:44.922Z,100.00
2023-08-25T10:14:15.792Z,100.00
2023-08-25T10:16:51.464Z,100.00
2023-08-25T10:19:25.562Z,100.00
2023-08-25T10:21:55.580Z,100.00
2023-08-25T10:24:26.125Z,100.00
2023-08-25T10:26:56.068Z,97.15
2023-08-25T10:29:26.902Z,86.65
2023-08-25T10:32:03.759Z,79.66
2023-08-25T10:34:35.463Z,75.13
2023-08-25T10:37:09.072Z,71.57
2023-08-25T10:39:51.287Z,69.59
2023-08-25T10:42:26.268Z,69.12
2023-08-25T10:44:56.185Z,74.85
2023-08-25T10:47:26.414Z,89.98
2023-08-25T10:49:56.292Z,100.00
2023-08-25T10:52:25.777Z,100.00
2023-08-25T10:54:56.989Z,100.00
2023-08-25T10:57:44.412Z,100.00
2023-08-25T11:00:30.199Z,100.00
2023-08-25T11:03:03.393Z,100.00
2023-08-25T11:05:45.220Z,100.00
2023-08-25T11:08:30.365Z,100.00
2023-08-25T11:11:20.610Z,100.00
2023-08-25T11:13:50.557Z,100.00
2023-08-25T11:16:20.167Z,100.00
2023-08-25T11:18:50.530Z,96.87
2023-08-25T11:21:19.289Z,91.56
2023-08-25T11:23:51.030Z,91.88
2023-08-25T11:26:21.906Z,88.20
2023-08-25T11:28:51.102Z,93.56
2023-08-25T11:31:25.813Z,97.00
2023-08-25T11:33:56.859Z,94.79
2023-08-25T11:36:26.141Z,93.81
2023-08-25T11:38:54.524Z,95.53
2023-08-25T11:41:25.222Z,98.26
2023-08-25T11:43:53.819Z,100.00
2023-08-25T11:46:22.153Z,91.87
2023-08-25T11:48:50.851Z,83.49
2023-08-25T11:51:20.682Z,73.58
2023-08-25T11:53:49.181Z,77.19
2023-08-25T11:56:20.774Z,74.05
2023-08-25T11:58:50.506Z,78.52
2023-08-25T12:01:19.171Z,76.62
2023-08-25T12:03:48.962Z,73.02
2023-08-25T12:06:18.010Z,66.03
2023-08-25T12:08:51.083Z,65.15
2023-08-25T12:11:21.673Z,68.87
2023-08-25T12:13:52.397Z,69.64
2023-08-25T12:16:21.524Z,75.23
2023-08-25T12:27:31.968Z,76.75
2023-08-25T12:30:00.457Z,85.21
2023-08-25T12:32:29.805Z,92.31
2023-08-25T12:34:58.057Z,87.25
2023-08-25T12:37:28.197Z,90.90
2023-08-25T12:39:56.489Z,100.00
2023-08-25T12:42:25.183Z,100.00
2023-08-25T12:44:55.436Z,100.00
2023-08-25T12:47:23.913Z,100.00
2023-08-25T12:52:47.750Z,77.30
2023-08-25T12:55:21.304Z,71.09
2023-08-25T12:57:52.394Z,63.14
2023-08-25T13:00:22.487Z,63.28
2023-08-25T13:02:53.986Z,62.73
2023-08-25T13:05:24.775Z,61.39
2023-08-25T13:07:56.121Z,61.67
2023-08-25T13:10:25.894Z,55.87
2023-08-25T13:12:55.157Z,61.92
2023-08-25T13:15:24.732Z,59.75
2023-08-25T13:17:53.778Z,49.22
2023-08-25T13:20:23.021Z,50.49
2023-08-25T13:22:51.858Z,52.73
2023-08-25T13:25:20.617Z,59.01
2023-08-25T13:27:49.078Z,55.32
2023-08-25T13:30:17.585Z,60.30
2023-08-25T13:32:47.622Z,53.42
2023-08-25T13:35:15.965Z,50.28
2023-08-25T13:37:44.342Z,39.20
2023-08-25T13:40:12.874Z,38.23
2023-08-25T13:42:40.928Z,42.55
2023-08-25T13:45:10.104Z,43.20
2023-08-25T13:47:38.317Z,46.26
2023-08-25T13:50:12.120Z,44.32
2023-08-25T13:52:40.514Z,42.57
2023-08-25T13:55:09.161Z,45.23
2023-08-25T13:57:39.260Z,53.32
2023-08-25T14:00:09.212Z,66.60
2023-08-25T14:02:44.766Z,59.03
2023-08-25T14:05:18.829Z,62.56
2023-08-25T14:07:49.313Z,62.47
2023-08-25T14:10:19.841Z,57.40
2023-08-25T14:12:47.936Z,47.85
2023-08-25T14:15:15.943Z,49.08
2023-08-25T14:17:43.939Z,64.39
2023-08-25T14:20:12.646Z,69.45
2023-08-25T14:22:43.597Z,72.34
2023-08-25T14:25:13.036Z,56.79
2023-08-25T14:27:41.096Z,54.27
2023-08-25T14:30:10.695Z,49.92
2023-08-25T14:32:38.883Z,50.54
2023-08-25T14:35:07.969Z,44.79
2023-08-25T14:37:37.620Z,46.84
2023-08-25T14:40:08.946Z,43.82
2023-08-25T14:42:37.562Z,42.58
2023-08-25T14:45:06.686Z,44.65
2023-08-25T14:47:34.955Z,44.10
2023-08-25T14:50:03.520Z,44.61
2023-08-25T14:52:31.853Z,48.36
2023-08-25T14:55:00.263Z,48.99
2023-08-25T14:57:30.460Z,49.08
2023-08-25T14:59:58.902Z,47.42
2023-08-25T15:02:26.988Z,46.21
2023-08-25T15:04:58.553Z,46.22
2023-08-25T15:07:26.439Z,44.53
2023-08-25T15:09:54.480Z,45.08
2023-08-25T15:12:24.298Z,44.17
2023-08-25T15:14:54.543Z,42.93
2023-08-25T15:17:22.790Z,43.00
2023-08-25T15:19:52.267Z,48.14
2023-08-25T15:22:24.252Z,55.48
2023-08-25T15:24:52.394Z,53.49
2023-08-25T15:27:21.894Z,50.87
2023-08-25T15:29:51.862Z,47.27
2023-08-25T15:32:21.627Z,52.13
2023-08-25T15:34:51.137Z,52.16
2023-08-25T15:37:19.716Z,52.40
2023-08-25T15:39:48.146Z,48.64
2023-08-25T15:42:16.274Z,48.33
2023-08-25T15:44:45.568Z,58.73
2023-08-25T15:47:14.181Z,54.48
2023-08-25T15:49:43.479Z,57.47
2023-08-25T15:52:11.684Z,54.06
2023-08-25T15:54:39.934Z,56.61
2023-08-25T15:57:08.069Z,53.63
2023-08-25T15:59:36.229Z,50.93
2023-08-25T16:02:04.495Z,46.02
2023-08-25T16:04:32.751Z,47.71
2023-08-25T16:07:02.401Z,52.14
2023-08-25T16:09:30.448Z,51.12
2023-08-25T16:11:59.050Z,54.54
2023-08-25T16:14:27.552Z,59.15
2023-08-25T16:16:55.780Z,59.48
2023-08-25T16:19:23.969Z,56.74
2023-08-25T16:21:52.120Z,59.21
2023-08-25T16:24:21.457Z,57.61
2023-08-25T16:26:49.645Z,57.33
2023-08-25T16:29:18.898Z,64.43
2023-08-25T16:31:48.220Z,69.87
2023-08-25T16:34:16.523Z,83.95
2023-08-25T16:36:45.017Z,100.00
2023-08-25T16:39:13.229Z,100.00
2023-08-25T16:41:42.447Z,100.00
2023-08-25T16:44:10.522Z,100.00
2023-08-25T16:46:39.151Z,100.00
2023-08-25T16:49:07.174Z,100.00
2023-08-25T16:51:35.954Z,100.00
2023-08-25T16:54:08.238Z,100.00
2023-08-25T16:56:36.502Z,100.00
2023-08-25T16:59:05.931Z,100.00
2023-08-25T17:01:34.374Z,100.00
2023-08-25T17:04:02.479Z,100.00
2023-08-25T17:06:32.013Z,100.00
2023-08-25T17:09:00.133Z,100.00
2023-08-25T17:11:29.436Z,100.00
2023-08-25T17:13:57.475Z,100.00
2023-08-25T17:16:27.007Z,100.00
2023-08-25T17:18:55.153Z,100.00
2023-08-25T17:21:23.182Z,100.00
2023-08-25T17:23:51.261Z,100.00
2023-08-25T17:26:19.329Z,100.00
2023-08-25T17:28:48.128Z,100.00
2023-08-25T17:31:16.519Z,100.00
2023-08-25T17:33:46.434Z,100.00
2023-08-25T17:36:21.610Z,100.00
2023-08-25T17:38:52.238Z,100.00
2023-08-25T17:41:20.345Z,100.00
2023-08-25T17:43:55.669Z,100.00
2023-08-25T17:46:24.209Z,100.00
2023-08-25T17:48:53.878Z,100.00
2023-08-25T17:51:22.316Z,100.00
2023-08-25T17:53:51.680Z,100.00
2023-08-25T17:56:19.769Z,100.00
2023-08-25T17:58:50.372Z,100.00
2023-08-25T18:01:18.793Z,100.00
2023-08-25T18:03:49.143Z,100.00
2023-08-25T18:06:18.914Z,100.00
2023-08-25T18:08:47.236Z,100.00
2023-08-25T18:11:15.271Z,100.00
2023-08-25T18:13:43.644Z,100.00
2023-08-25T18:16:12.908Z,100.00
2023-08-25T18:18:43.226Z,100.00
2023-08-25T18:21:11.590Z,100.00
2023-08-25T18:23:41.542Z,100.00
2023-08-25T18:26:10.776Z,100.00
2023-08-25T18:28:38.864Z,100.00
2023-08-25T18:31:08.094Z,100.00
2023-08-25T18:33:39.829Z,100.00
2023-08-25T18:36:10.192Z,100.00
2023-08-25T18:38:40.920Z,100.00
2023-08-25T18:41:10.814Z,100.00
2023-08-25T18:43:39.175Z,100.00
2023-08-25T18:46:11.102Z,100.00
2023-08-25T18:48:39.478Z,100.00
2023-08-25T18:51:12.881Z,100.00
2023-08-25T18:53:41.083Z,100.00
2023-08-25T18:56:17.996Z,100.00
2023-08-25T18:58:46.957Z,100.00
2023-08-25T19:01:16.057Z,100.00
2023-08-25T19:03:45.839Z,100.00
2023-08-25T19:06:17.152Z,100.00
2023-08-25T19:08:46.548Z,100.00
2023-08-25T19:11:16.495Z,100.00
2023-08-25T19:13:45.573Z,100.00
2023-08-25T19:16:14.397Z,100.00
2023-08-25T19:18:42.620Z,100.00
2023-08-25T19:21:10.922Z,100.00
2023-08-25T19:23:40.225Z,100.00
2023-08-25T19:26:11.636Z,100.00
2023-08-25T19:28:43.288Z,100.00
2023-08-25T19:31:18.530Z,100.00
2023-08-25T19:33:49.024Z,100.00
2023-08-25T19:36:18.621Z,100.00
2023-08-25T19:38:48.041Z,100.00
2023-08-25T19:41:16.025Z,100.00
2023-08-25T19:43:46.235Z,100.00
2023-08-25T19:46:14.667Z,100.00
2023-08-25T19:48:44.029Z,100.00
2023-08-25T19:51:12.949Z,100.00
2023-08-25T19:53:41.900Z,100.00
2023-08-25T19:56:11.595Z,100.00
2023-08-25T19:58:39.942Z,100.00
2023-08-25T20:01:09.292Z,100.00
2023-08-25T20:03:37.340Z,100.00
2023-08-25T20:06:06.880Z,100.00
2023-08-25T20:08:38.633Z,100.00
2023-08-25T20:11:10.934Z,100.00
2023-08-25T20:13:38.917Z,100.00
2023-08-25T20:16:09.939Z,100.00
2023-08-25T20:18:39.828Z,100.00
2023-08-25T20:21:09.270Z,100.00
2023-08-25T20:23:38.800Z,100.00
2023-08-25T20:29:13.348Z,100.00
2023-08-25T20:31:41.749Z,100.00
2023-08-25T20:34:11.521Z,100.00
2023-08-25T20:36:39.724Z,100.00
2023-08-25T20:39:07.880Z,100.00
2023-08-25T20:41:35.923Z,100.00
2023-08-25T20:44:04.035Z,100.00
2023-08-25T20:46:32.383Z,100.00
2023-08-25T20:49:00.604Z,100.00
2023-08-25T20:51:29.955Z,100.00
2023-08-25T20:53:58.778Z,100.00
2023-08-25T20:56:28.425Z,100.00
2023-08-25T20:58:58.801Z,100.00
2023-08-25T21:01:26.757Z,100.00
2023-08-25T21:03:56.531Z,100.00
2023-08-25T21:06:26.989Z,100.00
2023-08-25T21:08:59.027Z,100.00
2023-08-25T21:11:28.728Z,100.00
2023-08-25T21:13:58.752Z,100.00
2023-08-25T21:16:28.671Z,100.00
2023-08-25T21:18:56.587Z,100.00
2023-08-25T21:21:24.725Z,100.00
2023-08-25T21:23:52.594Z,100.00
2023-08-25T21:26:22.209Z,100.00
2023-08-25T21:28:50.361Z,100.00
2023-08-25T21:31:19.175Z,100.00
2023-08-25T21:33:47.448Z,100.00
2023-08-25T21:36:15.568Z,100.00
2023-08-25T21:38:43.764Z,100.00
2023-08-25T21:41:11.638Z,100.00
2023-08-25T21:43:41.344Z,100.00
2023-08-25T21:46:10.105Z,100.00
2023-08-25T21:48:38.100Z,100.00
2023-08-25T21:51:06.339Z,100.00
2023-08-25T21:53:34.671Z,100.00
2023-08-25T21:56:03.380Z,100.00
2023-08-25T21:58:31.558Z,100.00
2023-08-25T22:01:08.788Z,100.00
2023-08-25T22:03:37.287Z,100.00
2023-08-25T22:06:05.783Z,100.00
2023-08-25T22:08:34.365Z,100.00
2023-08-25T22:11:03.334Z,100.00
2023-08-25T22:13:32.078Z,100.00
2023-08-25T22:16:04.224Z,100.00
2023-08-25T22:18:34.712Z,100.00
2023-08-25T22:21:02.598Z,100.00
2023-08-25T22:23:34.139Z,100.00
2023-08-25T22:26:02.077Z,100.00
2023-08-25T22:28:30.085Z,100.00
2023-08-25T22:30:58.159Z,100.00
2023-08-25T22:35:58.874Z,100.00
2023-08-25T22:38:27.202Z,100.00
2023-08-25T22:43:50.326Z,100.00
2023-08-25T22:46:18.242Z,100.00
2023-08-25T22:48:46.382Z,100.00
2023-08-25T22:51:19.087Z,100.00
2023-08-25T22:53:47.431Z,100.00
2023-08-25T22:56:15.403Z,100.00
2023-08-25T22:58:43.358Z,100.00
2023-08-25T23:01:17.375Z,100.00
2023-08-25T23:03:45.404Z,100.00
2023-08-25T23:06:13.848Z,100.00
2023-08-25T23:08:43.305Z,100.00
2023-08-25T23:11:11.916Z,100.00
2023-08-25T23:13:41.032Z,100.00
2023-08-25T23:16:10.700Z,100.00
2023-08-25T23:18:39.832Z,100.00
2023-08-25T23:21:07.906Z,100.00
2023-08-25T23:23:35.882Z,100.00
2023-08-25T23:26:05.157Z,100.00
2023-08-25T23:28:34.786Z,100.00
2023-08-25T23:31:03.321Z,100.00
2023-08-25T23:33:31.793Z,100.00
2023-08-25T23:36:02.407Z,100.00
2023-08-25T23:38:30.616Z,100.00
2023-08-25T23:40:58.971Z,100.00
2023-08-25T23:43:28.357Z,100.00
2023-08-25T23:45:58.426Z,100.00
2023-08-25T23:48:26.883Z,100.00
2023-08-25T23:50:56.096Z,100.00
2023-08-25T23:53:23.963Z,100.00
2023-08-25T23:55:51.811Z,100.00
2023-08-25T23:58:19.685Z,100.00
